F/V Spered Breizh — FIHY — position and weather

sailwx.info

Track history (hours):
 
Tides and Currents Weather Stations Pressure Air Temp Water Temp Dewpoint Dewpoint Depression Visibility Wind Speed Wind Dir Waves Ship Positions

F/V Spered Breizh

Last reported at 2018-Jul-20 04:17 UTC. Time now 2018-Jul-20 04:41 UTC.
Position N 47°48' W 004°17'.

Length 17 m.

MMSI: 228037700.

Date/timePositionNaut miles runAvg speedWind from/ knotsBaromVisibWave heightAir tempDewpointWater temp
2018-Jul-20 04:17N 47°48' W 004°17'0 0.0
2018-Jul-20 03:32N 47°48' W 004°17'0 0.0
2018-Jul-20 03:20N 47°48' W 004°17'18 7.2
2018-Jul-20 00:52N 47°55' W 004°41'2 6.7
2018-Jul-20 00:30N 47°56' W 004°45'1 1.3
2018-Jul-20 00:00N 47°56' W 004°45'2 4.3
2018-Jul-19 23:29N 47°54' W 004°43'0 0.9
2018-Jul-19 23:00N 47°54' W 004°44'1 2.0
2018-Jul-19 22:30N 47°55' W 004°45'8 8.8
2018-Jul-19 21:34N 47°57' W 004°33'4 9.4
2018-Jul-19 21:11N 47°57' W 004°28'9 0.5
2018-Jul-19 04:33N 47°49' W 004°23'9 1.6
2018-Jul-18 22:33N 47°57' W 004°29'4 7.3
2018-Jul-18 22:02N 47°60' W 004°33'13 0.7
2018-Jul-18 04:53N 47°49' W 004°23'4 1.9
2018-Jul-18 02:54N 47°50' W 004°28'12 9.3
2018-Jul-18 01:36N 47°55' W 004°44'1 9.4
2018-Jul-18 01:30N 47°55' W 004°45'0 0.8
2018-Jul-18 01:00N 47°55' W 004°45'1 1.1
2018-Jul-18 00:29N 47°55' W 004°45'3 3.0
2018-Jul-17 23:30N 47°58' W 004°46'4 8.8
2018-Jul-17 23:00N 47°60' W 004°40'3 2.6
2018-Jul-17 21:52N 47°60' W 004°36'6 5.9
2018-Jul-17 20:53N 47°58' W 004°28'9 8.7
2018-Jul-17 19:53N 47°49' W 004°24'1 0.1
2018-Jul-17 06:43N 47°49' W 004°23'4 2.1
2018-Jul-17 04:43N 47°53' W 004°24'2 9.6
2018-Jul-17 04:29N 47°55' W 004°25'1 1.9
2018-Jul-17 03:43N 47°56' W 004°27'2 8.5
2018-Jul-17 03:30N 47°58' W 004°29'2 3.8
2018-Jul-17 02:56N 47°59' W 004°31'1 1.5
2018-Jul-17 02:08N 47°60' W 004°33'2 4.6
2018-Jul-17 01:43N 47°60' W 004°36'2 6.1
2018-Jul-17 01:26N 47°60' W 004°33'0 0.1
2018-Jul-17 00:59N 47°60' W 004°33'1 1.6
2018-Jul-17 00:27N 47°60' W 004°34'6 5.6
2018-Jul-16 23:27N 47°57' W 004°27'1 0.9
2018-Jul-16 22:49N 47°57' W 004°26'8 2.6
2018-Jul-16 19:43N 47°49' W 004°23'0 0.0
2018-Jul-16 04:26N 47°49' W 004°23'2 4.1
2018-Jul-16 03:53N 47°50' W 004°26'4 9.9
2018-Jul-16 03:30N 47°52' W 004°31'5 9.4
2018-Jul-16 03:00N 47°54' W 004°37'3 5.6
2018-Jul-16 02:30N 47°56' W 004°41'2 4.8
2018-Jul-16 02:00N 47°55' W 004°44'0 0.6
2018-Jul-16 01:30N 47°55' W 004°44'1 1.4
2018-Jul-16 01:00N 47°55' W 004°44'1 2.5
2018-Jul-16 00:30N 47°54' W 004°43'1 1.2
2018-Jul-16 00:00N 47°55' W 004°43'1 2.6
2018-Jul-15 23:30N 47°56' W 004°44'4 8.9
2018-Jul-15 23:00N 47°59' W 004°49'3 5.8
2018-Jul-15 22:30N 48°00' W 004°45'5 9.9
2018-Jul-15 21:58N 47°60' W 004°37'6 9.0
2018-Jul-15 21:17N 47°58' W 004°28'4 8.8
2018-Jul-15 20:47N 47°54' W 004°24'  
2018-Jul-13 03:45N 47°49' W 004°23'0 0.2
2018-Jul-13 03:29N 47°49' W 004°23'1 2.1
2018-Jul-13 02:57N 47°49' W 004°25'8 5.6
2018-Jul-13 01:33N 47°45' W 004°14'1 1.9
2018-Jul-13 01:16N 47°45' W 004°13'8 5.6
2018-Jul-12 23:46N 47°51' W 004°23'7 4.6
2018-Jul-12 22:17N 47°57' W 004°27'1 2.1
2018-Jul-12 21:59N 47°57' W 004°28'5 3.5
2018-Jul-12 20:33N 47°53' W 004°24'4 0.2
2018-Jul-12 03:09N 47°49' W 004°23'4 1.0
2018-Jul-11 22:53N 47°53' W 004°23'2 1.2
2018-Jul-11 20:53N 47°55' W 004°25'6 6.4
2018-Jul-11 19:53N 47°49' W 004°23'0 0.0
2018-Jul-11 04:58N 47°49' W 004°23'8 2.8
2018-Jul-11 02:06N 47°56' W 004°27'2 2.3
2018-Jul-11 01:11N 47°58' W 004°28'0 0.3
2018-Jul-11 01:00N 47°58' W 004°28'5 5.4
2018-Jul-11 00:03N 47°54' W 004°23'1 7.4
2018-Jul-10 23:58N 47°55' W 004°24'3 1.9
2018-Jul-10 22:37N 47°57' W 004°27'5 8.8
2018-Jul-10 22:02N 47°59' W 004°33'1 8.1
2018-Jul-10 21:58N 47°59' W 004°34'4 8.5
2018-Jul-10 21:27N 47°58' W 004°28'4 8.0
2018-Jul-10 20:58N 47°55' W 004°24'6 6.0
2018-Jul-10 19:58N 47°49' W 004°23'0 0.0
2018-Jul-10 05:34N 47°49' W 004°23'1 4.7
2018-Jul-10 05:24N 47°49' W 004°24'410.1
2018-Jul-10 05:00N 47°53' W 004°26'510.2
2018-Jul-10 04:30N 47°57' W 004°28'  
Track history (hours):
 
Tides and Currents Weather Stations Pressure Air Temp Water Temp Dewpoint Dewpoint Depression Visibility Wind Speed Wind Dir Waves Ship Positions

F/V Spered Breizh

Last reported at 2018-Jul-20 04:17 UTC. Time now 2018-Jul-20 04:41 UTC.
Position N 47°48' W 004°17'.

Length 17 m.

MMSI: 228037700.

Date/timePositionNaut miles runAvg speedWind from/ knotsBaromVisibWave heightAir tempDewpointWater temp
2018-Jul-20 04:17N 47°48' W 004°17'0 0.0
2018-Jul-20 03:32N 47°48' W 004°17'0 0.0
2018-Jul-20 03:20N 47°48' W 004°17'18 7.2
2018-Jul-20 00:52N 47°55' W 004°41'2 6.7
2018-Jul-20 00:30N 47°56' W 004°45'1 1.3
2018-Jul-20 00:00N 47°56' W 004°45'2 4.3
2018-Jul-19 23:29N 47°54' W 004°43'0 0.9
2018-Jul-19 23:00N 47°54' W 004°44'1 2.0
2018-Jul-19 22:30N 47°55' W 004°45'8 8.8
2018-Jul-19 21:34N 47°57' W 004°33'4 9.4
2018-Jul-19 21:11N 47°57' W 004°28'9 0.5
2018-Jul-19 04:33N 47°49' W 004°23'9 1.6
2018-Jul-18 22:33N 47°57' W 004°29'4 7.3
2018-Jul-18 22:02N 47°60' W 004°33'13 0.7
2018-Jul-18 04:53N 47°49' W 004°23'4 1.9
2018-Jul-18 02:54N 47°50' W 004°28'12 9.3
2018-Jul-18 01:36N 47°55' W 004°44'1 9.4
2018-Jul-18 01:30N 47°55' W 004°45'0 0.8
2018-Jul-18 01:00N 47°55' W 004°45'1 1.1
2018-Jul-18 00:29N 47°55' W 004°45'3 3.0
2018-Jul-17 23:30N 47°58' W 004°46'4 8.8
2018-Jul-17 23:00N 47°60' W 004°40'3 2.6
2018-Jul-17 21:52N 47°60' W 004°36'6 5.9
2018-Jul-17 20:53N 47°58' W 004°28'9 8.7
2018-Jul-17 19:53N 47°49' W 004°24'1 0.1
2018-Jul-17 06:43N 47°49' W 004°23'4 2.1
2018-Jul-17 04:43N 47°53' W 004°24'2 9.6
2018-Jul-17 04:29N 47°55' W 004°25'1 1.9
2018-Jul-17 03:43N 47°56' W 004°27'2 8.5
2018-Jul-17 03:30N 47°58' W 004°29'2 3.8
2018-Jul-17 02:56N 47°59' W 004°31'1 1.5
2018-Jul-17 02:08N 47°60' W 004°33'2 4.6
2018-Jul-17 01:43N 47°60' W 004°36'2 6.1
2018-Jul-17 01:26N 47°60' W 004°33'0 0.1
2018-Jul-17 00:59N 47°60' W 004°33'1 1.6
2018-Jul-17 00:27N 47°60' W 004°34'6 5.6
2018-Jul-16 23:27N 47°57' W 004°27'1 0.9
2018-Jul-16 22:49N 47°57' W 004°26'8 2.6
2018-Jul-16 19:43N 47°49' W 004°23'0 0.0
2018-Jul-16 04:26N 47°49' W 004°23'2 4.1
2018-Jul-16 03:53N 47°50' W 004°26'4 9.9
2018-Jul-16 03:30N 47°52' W 004°31'5 9.4
2018-Jul-16 03:00N 47°54' W 004°37'3 5.6
2018-Jul-16 02:30N 47°56' W 004°41'2 4.8
2018-Jul-16 02:00N 47°55' W 004°44'0 0.6
2018-Jul-16 01:30N 47°55' W 004°44'1 1.4
2018-Jul-16 01:00N 47°55' W 004°44'1 2.5
2018-Jul-16 00:30N 47°54' W 004°43'1 1.2
2018-Jul-16 00:00N 47°55' W 004°43'1 2.6
2018-Jul-15 23:30N 47°56' W 004°44'4 8.9
2018-Jul-15 23:00N 47°59' W 004°49'3 5.8
2018-Jul-15 22:30N 48°00' W 004°45'5 9.9
2018-Jul-15 21:58N 47°60' W 004°37'6 9.0
2018-Jul-15 21:17N 47°58' W 004°28'4 8.8
2018-Jul-15 20:47N 47°54' W 004°24'  
2018-Jul-13 03:45N 47°49' W 004°23'0 0.2
2018-Jul-13 03:29N 47°49' W 004°23'1 2.1
2018-Jul-13 02:57N 47°49' W 004°25'8 5.6
2018-Jul-13 01:33N 47°45' W 004°14'1 1.9
2018-Jul-13 01:16N 47°45' W 004°13'8 5.6
2018-Jul-12 23:46N 47°51' W 004°23'7 4.6
2018-Jul-12 22:17N 47°57' W 004°27'1 2.1
2018-Jul-12 21:59N 47°57' W 004°28'5 3.5
2018-Jul-12 20:33N 47°53' W 004°24'4 0.2
2018-Jul-12 03:09N 47°49' W 004°23'4 1.0
2018-Jul-11 22:53N 47°53' W 004°23'2 1.2
2018-Jul-11 20:53N 47°55' W 004°25'6 6.4
2018-Jul-11 19:53N 47°49' W 004°23'0 0.0
2018-Jul-11 04:58N 47°49' W 004°23'8 2.8
2018-Jul-11 02:06N 47°56' W 004°27'2 2.3
2018-Jul-11 01:11N 47°58' W 004°28'0 0.3
2018-Jul-11 01:00N 47°58' W 004°28'5 5.4
2018-Jul-11 00:03N 47°54' W 004°23'1 7.4
2018-Jul-10 23:58N 47°55' W 004°24'3 1.9
2018-Jul-10 22:37N 47°57' W 004°27'5 8.8
2018-Jul-10 22:02N 47°59' W 004°33'1 8.1
2018-Jul-10 21:58N 47°59' W 004°34'4 8.5
2018-Jul-10 21:27N 47°58' W 004°28'4 8.0
2018-Jul-10 20:58N 47°55' W 004°24'6 6.0
2018-Jul-10 19:58N 47°49' W 004°23'0 0.0
2018-Jul-10 05:34N 47°49' W 004°23'1 4.7
2018-Jul-10 05:24N 47°49' W 004°24'410.1
2018-Jul-10 05:00N 47°53' W 004°26'510.2
2018-Jul-10 04:30N 47°57' W 004°28'  

Dump ship's entire track history